sensor_id;sensor_type;location;lat;lon;timestamp;P1;durP1;ratioP1;P2;durP2;ratioP2
33074;SDS011;19433;51.292;6.868;2023-04-03T05:31:31;5.17;;;4.27;;
33074;SDS011;19433;51.292;6.868;2023-04-03T05:33:56;5.60;;;4.63;;
33074;SDS011;19433;51.292;6.868;2023-04-03T05:36:22;3.93;;;3.53;;
33074;SDS011;19433;51.292;6.868;2023-04-03T05:38:47;4.37;;;3.77;;
33074;SDS011;19433;51.292;6.868;2023-04-03T05:41:13;4.30;;;3.70;;
33074;SDS011;19433;51.292;6.868;2023-04-03T05:43:39;5.67;;;3.17;;
33074;SDS011;19433;51.292;6.868;2023-04-03T05:46:15;2.87;;;2.67;;
33074;SDS011;19433;51.292;6.868;2023-04-03T05:48:42;4.90;;;3.17;;
33074;SDS011;19433;51.292;6.868;2023-04-03T05:51:09;6.57;;;3.80;;
33074;SDS011;19433;51.292;6.868;2023-04-03T05:53:40;3.47;;;3.17;;
33074;SDS011;19433;51.292;6.868;2023-04-03T05:56:06;3.40;;;3.03;;
33074;SDS011;19433;51.292;6.868;2023-04-03T05:58:31;4.80;;;3.80;;
33074;SDS011;19433;51.292;6.868;2023-04-03T06:00:56;4.60;;;3.67;;
33074;SDS011;19433;51.292;6.868;2023-04-03T06:03:22;5.40;;;4.90;;
33074;SDS011;19433;51.292;6.868;2023-04-03T06:05:47;4.03;;;3.37;;
33074;SDS011;19433;51.292;6.868;2023-04-03T06:08:13;6.10;;;3.60;;
33074;SDS011;19433;51.292;6.868;2023-04-03T06:10:39;4.53;;;3.83;;
33074;SDS011;19433;51.292;6.868;2023-04-03T06:13:05;5.00;;;3.63;;
33074;SDS011;19433;51.292;6.868;2023-04-03T06:15:30;5.50;;;3.20;;
33074;SDS011;19433;51.292;6.868;2023-04-03T06:17:56;4.90;;;3.50;;
33074;SDS011;19433;51.292;6.868;2023-04-03T06:20:21;4.57;;;3.43;;
33074;SDS011;19433;51.292;6.868;2023-04-03T06:22:47;4.73;;;3.30;;
33074;SDS011;19433;51.292;6.868;2023-04-03T06:25:12;4.90;;;2.90;;
33074;SDS011;19433;51.292;6.868;2023-04-03T06:27:38;4.97;;;3.90;;
33074;SDS011;19433;51.292;6.868;2023-04-03T06:30:04;10.10;;;5.20;;
33074;SDS011;19433;51.292;6.868;2023-04-03T06:32:31;8.87;;;4.03;;
33074;SDS011;19433;51.292;6.868;2023-04-03T06:34:56;5.00;;;3.60;;
33074;SDS011;19433;51.292;6.868;2023-04-03T06:37:22;3.80;;;3.23;;
33074;SDS011;19433;51.292;6.868;2023-04-03T06:39:47;3.40;;;3.10;;
33074;SDS011;19433;51.292;6.868;2023-04-03T06:42:13;4.60;;;3.20;;
33074;SDS011;19433;51.292;6.868;2023-04-03T06:44:38;3.93;;;2.40;;
33074;SDS011;19433;51.292;6.868;2023-04-03T06:47:04;3.83;;;2.43;;
33074;SDS011;19433;51.292;6.868;2023-04-03T06:49:30;4.50;;;3.03;;
33074;SDS011;19433;51.292;6.868;2023-04-03T06:51:55;3.43;;;2.60;;
33074;SDS011;19433;51.292;6.868;2023-04-03T06:54:21;5.10;;;2.43;;
33074;SDS011;19433;51.292;6.868;2023-04-03T06:56:46;6.50;;;2.90;;
33074;SDS011;19433;51.292;6.868;2023-04-03T06:59:12;6.00;;;2.63;;
33074;SDS011;19433;51.292;6.868;2023-04-03T07:01:40;8.50;;;3.10;;
33074;SDS011;19433;51.292;6.868;2023-04-03T07:04:07;4.63;;;3.40;;
33074;SDS011;19433;51.292;6.868;2023-04-03T07:06:32;3.80;;;2.70;;
33074;SDS011;19433;51.292;6.868;2023-04-03T07:08:58;3.50;;;3.00;;
33074;SDS011;19433;51.292;6.868;2023-04-03T07:11:24;5.60;;;2.90;;
33074;SDS011;19433;51.292;6.868;2023-04-03T07:13:51;3.03;;;2.20;;
33074;SDS011;19433;51.292;6.868;2023-04-03T07:16:17;5.03;;;2.40;;
33074;SDS011;19433;51.292;6.868;2023-04-03T07:18:42;3.80;;;2.60;;
33074;SDS011;19433;51.292;6.868;2023-04-03T07:21:09;5.47;;;2.63;;
33074;SDS011;19433;51.292;6.868;2023-04-03T07:23:35;4.03;;;2.83;;
33074;SDS011;19433;51.292;6.868;2023-04-03T07:26:00;4.30;;;2.60;;
33074;SDS011;19433;51.292;6.868;2023-04-03T07:28:26;4.43;;;2.30;;
33074;SDS011;19433;51.292;6.868;2023-04-03T07:31:02;5.03;;;2.97;;
33074;SDS011;19433;51.292;6.868;2023-04-03T07:33:30;4.07;;;2.93;;
33074;SDS011;19433;51.292;6.868;2023-04-03T07:35:56;5.60;;;2.97;;
33074;SDS011;19433;51.292;6.868;2023-04-03T07:38:23;2.77;;;2.50;;
33074;SDS011;19433;51.292;6.868;2023-04-03T07:40:48;4.77;;;2.30;;
33074;SDS011;19433;51.292;6.868;2023-04-03T07:43:15;4.17;;;2.20;;
33074;SDS011;19433;51.292;6.868;2023-04-03T07:45:42;4.20;;;2.30;;
33074;SDS011;19433;51.292;6.868;2023-04-03T07:48:08;3.17;;;2.40;;
33074;SDS011;19433;51.292;6.868;2023-04-03T07:50:34;3.60;;;2.50;;
33074;SDS011;19433;51.292;6.868;2023-04-03T07:53:01;2.80;;;2.10;;
33074;SDS011;19433;51.292;6.868;2023-04-03T07:55:26;4.70;;;2.47;;
33074;SDS011;19433;51.292;6.868;2023-04-03T07:57:52;6.97;;;2.50;;
33074;SDS011;19433;51.292;6.868;2023-04-03T08:00:17;3.37;;;2.20;;
33074;SDS011;19433;51.292;6.868;2023-04-03T08:02:43;2.43;;;2.07;;
33074;SDS011;19433;51.292;6.868;2023-04-03T08:05:09;3.23;;;2.00;;
33074;SDS011;19433;51.292;6.868;2023-04-03T08:07:36;3.27;;;1.77;;
33074;SDS011;19433;51.292;6.868;2023-04-03T08:10:02;2.10;;;1.70;;
33074;SDS011;19433;51.292;6.868;2023-04-03T08:12:27;2.37;;;1.83;;
33074;SDS011;19433;51.292;6.868;2023-04-03T08:14:54;2.07;;;1.90;;
33074;SDS011;19433;51.292;6.868;2023-04-03T08:17:20;3.70;;;2.27;;
33074;SDS011;19433;51.292;6.868;2023-04-03T08:19:46;4.50;;;2.13;;
33074;SDS011;19433;51.292;6.868;2023-04-03T08:22:11;3.50;;;2.27;;
33074;SDS011;19433;51.292;6.868;2023-04-03T08:24:37;2.70;;;1.93;;
33074;SDS011;19433;51.292;6.868;2023-04-03T08:27:02;3.57;;;1.90;;
33074;SDS011;19433;51.292;6.868;2023-04-03T08:29:27;4.20;;;2.37;;
33074;SDS011;19433;51.292;6.868;2023-04-03T08:31:53;4.27;;;1.63;;
33074;SDS011;19433;51.292;6.868;2023-04-03T08:34:19;2.30;;;1.70;;
33074;SDS011;19433;51.292;6.868;2023-04-03T08:36:45;2.10;;;1.73;;
33074;SDS011;19433;51.292;6.868;2023-04-03T08:39:10;2.80;;;1.60;;
33074;SDS011;19433;51.292;6.868;2023-04-03T08:41:40;2.40;;;2.17;;
33074;SDS011;19433;51.292;6.868;2023-04-03T08:44:14;2.30;;;2.10;;
33074;SDS011;19433;51.292;6.868;2023-04-03T08:49:47;2.60;;;1.83;;
33074;SDS011;19433;51.292;6.868;2023-04-03T08:52:17;3.37;;;1.30;;
33074;SDS011;19433;51.292;6.868;2023-04-03T08:54:55;2.00;;;1.77;;
33074;SDS011;19433;51.292;6.868;2023-04-03T08:57:47;5.07;;;1.50;;
33074;SDS011;19433;51.292;6.868;2023-04-03T09:02:53;1.93;;;1.73;;
33074;SDS011;19433;51.292;6.868;2023-04-03T09:05:28;1.70;;;1.50;;
33074;SDS011;19433;51.292;6.868;2023-04-03T09:10:52;4.33;;;2.00;;
33074;SDS011;19433;51.292;6.868;2023-04-03T09:14:11;2.43;;;1.40;;
33074;SDS011;19433;51.292;6.868;2023-04-03T09:16:25;1.33;;;1.23;;
33074;SDS011;19433;51.292;6.868;2023-04-03T09:19:06;3.07;;;1.70;;
33074;SDS011;19433;51.292;6.868;2023-04-03T09:21:46;1.87;;;1.43;;
33074;SDS011;19433;51.292;6.868;2023-04-03T09:24:12;2.57;;;1.50;;
33074;SDS011;19433;51.292;6.868;2023-04-03T09:26:48;1.63;;;1.40;;
33074;SDS011;19433;51.292;6.868;2023-04-03T09:29:20;1.63;;;1.53;;
33074;SDS011;19433;51.292;6.868;2023-04-03T09:31:48;2.30;;;1.77;;
33074;SDS011;19433;51.292;6.868;2023-04-03T09:34:20;2.23;;;1.37;;
33074;SDS011;19433;51.292;6.868;2023-04-03T09:36:52;1.57;;;1.30;;
33074;SDS011;19433;51.292;6.868;2023-04-03T09:39:22;1.53;;;1.40;;
33074;SDS011;19433;51.292;6.868;2023-04-03T09:41:57;2.17;;;1.97;;
33074;SDS011;19433;51.292;6.868;2023-04-03T09:44:36;3.17;;;1.37;;
33074;SDS011;19433;51.292;6.868;2023-04-03T09:47:17;2.20;;;1.30;;
33074;SDS011;19433;51.292;6.868;2023-04-03T09:49:48;4.57;;;1.63;;
33074;SDS011;19433;51.292;6.868;2023-04-03T09:52:22;1.93;;;1.20;;
33074;SDS011;19433;51.292;6.868;2023-04-03T09:54:50;1.30;;;1.20;;
33074;SDS011;19433;51.292;6.868;2023-04-03T09:57:15;2.17;;;1.60;;
33074;SDS011;19433;51.292;6.868;2023-04-03T09:59:58;2.83;;;1.37;;
33074;SDS011;19433;51.292;6.868;2023-04-03T10:02:36;2.77;;;1.40;;
33074;SDS011;19433;51.292;6.868;2023-04-03T10:05:05;2.50;;;1.73;;
33074;SDS011;19433;51.292;6.868;2023-04-03T10:10:44;1.37;;;1.27;;
33074;SDS011;19433;51.292;6.868;2023-04-03T10:13:29;1.87;;;1.10;;
33074;SDS011;19433;51.292;6.868;2023-04-03T10:15:55;1.67;;;1.30;;
33074;SDS011;19433;51.292;6.868;2023-04-03T10:18:32;4.70;;;1.70;;
33074;SDS011;19433;51.292;6.868;2023-04-03T10:21:08;2.47;;;1.50;;
33074;SDS011;19433;51.292;6.868;2023-04-03T10:23:44;3.33;;;1.77;;
33074;SDS011;19433;51.292;6.868;2023-04-03T10:28:55;4.13;;;1.80;;
33074;SDS011;19433;51.292;6.868;2023-04-03T10:31:31;2.63;;;1.60;;
33074;SDS011;19433;51.292;6.868;2023-04-03T10:34:29;1.73;;;1.47;;
33074;SDS011;19433;51.292;6.868;2023-04-03T10:37:05;2.17;;;1.83;;
33074;SDS011;19433;51.292;6.868;2023-04-03T10:39:59;1.53;;;1.43;;
33074;SDS011;19433;51.292;6.868;2023-04-03T10:51:01;2.40;;;1.97;;
33074;SDS011;19433;51.292;6.868;2023-04-03T10:56:46;3.73;;;1.80;;
33074;SDS011;19433;51.292;6.868;2023-04-03T10:59:21;2.47;;;1.80;;
33074;SDS011;19433;51.292;6.868;2023-04-03T11:01:49;2.97;;;1.90;;
33074;SDS011;19433;51.292;6.868;2023-04-03T11:04:19;3.13;;;1.47;;
33074;SDS011;19433;51.292;6.868;2023-04-03T11:09:24;2.03;;;1.57;;
33074;SDS011;19433;51.292;6.868;2023-04-03T11:11:55;2.23;;;1.30;;
33074;SDS011;19433;51.292;6.868;2023-04-03T11:19:42;3.80;;;1.53;;
33074;SDS011;19433;51.292;6.868;2023-04-03T11:24:42;2.97;;;1.20;;
33074;SDS011;19433;51.292;6.868;2023-04-03T11:27:17;1.50;;;1.33;;
33074;SDS011;19433;51.292;6.868;2023-04-03T11:29:47;2.17;;;1.57;;
33074;SDS011;19433;51.292;6.868;2023-04-03T11:32:27;2.30;;;2.10;;
33074;SDS011;19433;51.292;6.868;2023-04-03T11:35:04;3.70;;;1.30;;
33074;SDS011;19433;51.292;6.868;2023-04-03T11:37:36;1.30;;;1.20;;
33074;SDS011;19433;51.292;6.868;2023-04-03T11:40:08;2.83;;;1.20;;
33074;SDS011;19433;51.292;6.868;2023-04-03T11:42:46;3.70;;;1.23;;
33074;SDS011;19433;51.292;6.868;2023-04-03T11:47:56;2.20;;;1.27;;
33074;SDS011;19433;51.292;6.868;2023-04-03T12:01:08;1.40;;;1.30;;
33074;SDS011;19433;51.292;6.868;2023-04-03T12:16:05;2.50;;;1.30;;
33074;SDS011;19433;51.292;6.868;2023-04-03T12:21:09;1.20;;;1.10;;
33074;SDS011;19433;51.292;6.868;2023-04-03T12:26:30;1.80;;;1.17;;
33074;SDS011;19433;51.292;6.868;2023-04-03T12:29:01;2.00;;;1.33;;
33074;SDS011;19433;51.292;6.868;2023-04-03T12:31:42;0.87;;;0.87;;
33074;SDS011;19433;51.292;6.868;2023-04-03T12:34:24;2.80;;;1.43;;
33074;SDS011;19433;51.292;6.868;2023-04-03T12:37:07;0.97;;;0.90;;
33074;SDS011;19433;51.292;6.868;2023-04-03T12:39:49;2.33;;;1.20;;
33074;SDS011;19433;51.292;6.868;2023-04-03T12:47:48;2.13;;;1.10;;
33074;SDS011;19433;51.292;6.868;2023-04-03T12:50:20;1.53;;;1.40;;
33074;SDS011;19433;51.292;6.868;2023-04-03T12:53:06;2.47;;;1.17;;
33074;SDS011;19433;51.292;6.868;2023-04-03T12:55:36;3.80;;;1.10;;
33074;SDS011;19433;51.292;6.868;2023-04-03T12:58:22;1.77;;;1.00;;
33074;SDS011;19433;51.292;6.868;2023-04-03T13:00:58;1.90;;;1.37;;
33074;SDS011;19433;51.292;6.868;2023-04-03T13:03:26;1.47;;;1.37;;
33074;SDS011;19433;51.292;6.868;2023-04-03T13:05:52;2.30;;;1.30;;
33074;SDS011;19433;51.292;6.868;2023-04-03T13:08:23;1.37;;;1.13;;
33074;SDS011;19433;51.292;6.868;2023-04-03T13:10:51;1.10;;;1.00;;
33074;SDS011;19433;51.292;6.868;2023-04-03T13:13:20;1.33;;;1.23;;
33074;SDS011;19433;51.292;6.868;2023-04-03T13:15:48;2.40;;;1.33;;
33074;SDS011;19433;51.292;6.868;2023-04-03T13:18:28;1.40;;;1.10;;
33074;SDS011;19433;51.292;6.868;2023-04-03T13:23:57;2.07;;;1.50;;
33074;SDS011;19433;51.292;6.868;2023-04-03T13:26:26;1.23;;;0.97;;
33074;SDS011;19433;51.292;6.868;2023-04-03T13:28:54;3.00;;;1.97;;
33074;SDS011;19433;51.292;6.868;2023-04-03T13:31:26;1.93;;;1.50;;
33074;SDS011;19433;51.292;6.868;2023-04-03T13:34:11;1.60;;;1.37;;
33074;SDS011;19433;51.292;6.868;2023-04-03T13:39:22;1.90;;;1.10;;
33074;SDS011;19433;51.292;6.868;2023-04-03T13:41:48;1.47;;;1.37;;
33074;SDS011;19433;51.292;6.868;2023-04-03T13:46:48;3.50;;;1.20;;
33074;SDS011;19433;51.292;6.868;2023-04-03T13:49:41;2.50;;;1.30;;
33074;SDS011;19433;51.292;6.868;2023-04-03T13:54:51;1.53;;;1.23;;
33074;SDS011;19433;51.292;6.868;2023-04-03T13:57:19;1.67;;;1.27;;
33074;SDS011;19433;51.292;6.868;2023-04-03T13:59:46;2.33;;;1.50;;
33074;SDS011;19433;51.292;6.868;2023-04-03T14:04:47;2.73;;;1.40;;
33074;SDS011;19433;51.292;6.868;2023-04-03T14:07:21;1.70;;;1.13;;
33074;SDS011;19433;51.292;6.868;2023-04-03T14:09:47;1.87;;;1.03;;
33074;SDS011;19433;51.292;6.868;2023-04-03T14:12:15;1.47;;;1.30;;
33074;SDS011;19433;51.292;6.868;2023-04-03T14:14:44;1.37;;;1.03;;
33074;SDS011;19433;51.292;6.868;2023-04-03T14:17:13;1.73;;;1.37;;
33074;SDS011;19433;51.292;6.868;2023-04-03T14:19:44;2.07;;;1.27;;
33074;SDS011;19433;51.292;6.868;2023-04-03T14:22:18;1.83;;;1.17;;
33074;SDS011;19433;51.292;6.868;2023-04-03T14:24:51;1.17;;;1.07;;
33074;SDS011;19433;51.292;6.868;2023-04-03T14:27:19;4.23;;;1.60;;
33074;SDS011;19433;51.292;6.868;2023-04-03T14:29:51;1.50;;;1.40;;
33074;SDS011;19433;51.292;6.868;2023-04-03T14:32:20;1.47;;;1.37;;
33074;SDS011;19433;51.292;6.868;2023-04-03T14:34:47;3.13;;;1.80;;
33074;SDS011;19433;51.292;6.868;2023-04-03T14:37:17;4.30;;;1.80;;
33074;SDS011;19433;51.292;6.868;2023-04-03T14:39:44;2.90;;;2.07;;
33074;SDS011;19433;51.292;6.868;2023-04-03T14:42:15;3.30;;;1.47;;
33074;SDS011;19433;51.292;6.868;2023-04-03T14:44:42;1.83;;;1.20;;
33074;SDS011;19433;51.292;6.868;2023-04-03T14:47:09;1.80;;;1.70;;
33074;SDS011;19433;51.292;6.868;2023-04-03T14:49:36;2.10;;;1.30;;
33074;SDS011;19433;51.292;6.868;2023-04-03T14:52:02;1.97;;;1.20;;
33074;SDS011;19433;51.292;6.868;2023-04-03T14:54:27;1.83;;;1.60;;
33074;SDS011;19433;51.292;6.868;2023-04-03T14:56:54;3.27;;;1.70;;
33074;SDS011;19433;51.292;6.868;2023-04-03T14:59:21;2.07;;;1.70;;
33074;SDS011;19433;51.292;6.868;2023-04-03T15:01:47;3.30;;;1.43;;
33074;SDS011;19433;51.292;6.868;2023-04-03T15:04:13;1.77;;;1.57;;
33074;SDS011;19433;51.292;6.868;2023-04-03T15:06:40;1.70;;;1.50;;
33074;SDS011;19433;51.292;6.868;2023-04-03T15:09:10;1.73;;;1.33;;
33074;SDS011;19433;51.292;6.868;2023-04-03T15:11:44;2.70;;;1.40;;
33074;SDS011;19433;51.292;6.868;2023-04-03T15:14:09;3.27;;;2.30;;
33074;SDS011;19433;51.292;6.868;2023-04-03T15:16:35;1.57;;;1.27;;
33074;SDS011;19433;51.292;6.868;2023-04-03T15:19:00;3.70;;;1.27;;
33074;SDS011;19433;51.292;6.868;2023-04-03T15:21:26;3.60;;;1.33;;
33074;SDS011;19433;51.292;6.868;2023-04-03T15:23:51;2.90;;;1.30;;
33074;SDS011;19433;51.292;6.868;2023-04-03T15:26:17;1.70;;;1.13;;
33074;SDS011;19433;51.292;6.868;2023-04-03T15:28:42;1.57;;;1.43;;
33074;SDS011;19433;51.292;6.868;2023-04-03T15:31:09;1.80;;;1.50;;
33074;SDS011;19433;51.292;6.868;2023-04-03T15:33:34;2.70;;;0.97;;
33074;SDS011;19433;51.292;6.868;2023-04-03T15:36:00;2.37;;;0.90;;
33074;SDS011;19433;51.292;6.868;2023-04-03T15:38:26;2.00;;;1.30;;
33074;SDS011;19433;51.292;6.868;2023-04-03T15:40:53;4.10;;;1.67;;
33074;SDS011;19433;51.292;6.868;2023-04-03T15:43:19;3.07;;;1.33;;
33074;SDS011;19433;51.292;6.868;2023-04-03T15:45:44;2.80;;;1.57;;
33074;SDS011;19433;51.292;6.868;2023-04-03T15:48:11;2.40;;;1.10;;
33074;SDS011;19433;51.292;6.868;2023-04-03T15:50:37;4.03;;;1.60;;
33074;SDS011;19433;51.292;6.868;2023-04-03T15:53:02;2.20;;;1.50;;
33074;SDS011;19433;51.292;6.868;2023-04-03T15:55:29;2.27;;;1.33;;
33074;SDS011;19433;51.292;6.868;2023-04-03T15:57:56;2.20;;;1.30;;
33074;SDS011;19433;51.292;6.868;2023-04-03T16:00:22;2.33;;;1.63;;
33074;SDS011;19433;51.292;6.868;2023-04-03T16:02:50;5.07;;;1.40;;
33074;SDS011;19433;51.292;6.868;2023-04-03T16:05:18;1.83;;;1.60;;
33074;SDS011;19433;51.292;6.868;2023-04-03T16:07:44;2.10;;;1.30;;
33074;SDS011;19433;51.292;6.868;2023-04-03T16:10:11;1.30;;;1.20;;
33074;SDS011;19433;51.292;6.868;2023-04-03T16:12:37;1.80;;;1.37;;
33074;SDS011;19433;51.292;6.868;2023-04-03T16:15:03;1.70;;;1.50;;
33074;SDS011;19433;51.292;6.868;2023-04-03T16:17:29;2.50;;;1.70;;
33074;SDS011;19433;51.292;6.868;2023-04-03T16:19:56;3.87;;;2.27;;
33074;SDS011;19433;51.292;6.868;2023-04-03T16:22:25;3.20;;;1.53;;
33074;SDS011;19433;51.292;6.868;2023-04-03T16:24:52;1.83;;;1.30;;
33074;SDS011;19433;51.292;6.868;2023-04-03T16:27:18;2.67;;;1.30;;
33074;SDS011;19433;51.292;6.868;2023-04-03T16:29:43;4.90;;;2.00;;
33074;SDS011;19433;51.292;6.868;2023-04-03T16:32:08;4.83;;;1.40;;
33074;SDS011;19433;51.292;6.868;2023-04-03T16:34:34;1.50;;;1.40;;
33074;SDS011;19433;51.292;6.868;2023-04-03T16:36:59;5.00;;;2.67;;
33074;SDS011;19433;51.292;6.868;2023-04-03T16:39:25;2.00;;;1.67;;
33074;SDS011;19433;51.292;6.868;2023-04-03T16:41:50;4.70;;;2.00;;
33074;SDS011;19433;51.292;6.868;2023-04-03T16:44:16;4.70;;;2.23;;
33074;SDS011;19433;51.292;6.868;2023-04-03T16:46:42;2.63;;;2.17;;
33074;SDS011;19433;51.292;6.868;2023-04-03T16:49:08;2.00;;;1.83;;
33074;SDS011;19433;51.292;6.868;2023-04-03T16:51:33;4.57;;;1.67;;
33074;SDS011;19433;51.292;6.868;2023-04-03T16:53:58;2.17;;;1.60;;
33074;SDS011;19433;51.292;6.868;2023-04-03T16:56:24;2.47;;;1.47;;
33074;SDS011;19433;51.292;6.868;2023-04-03T16:58:51;2.60;;;1.90;;
33074;SDS011;19433;51.292;6.868;2023-04-03T17:01:19;3.67;;;2.70;;
33074;SDS011;19433;51.292;6.868;2023-04-03T17:03:45;3.80;;;3.33;;
33074;SDS011;19433;51.292;6.868;2023-04-03T17:06:12;4.63;;;3.43;;
33074;SDS011;19433;51.292;6.868;2023-04-03T17:08:44;6.13;;;2.27;;
33074;SDS011;19433;51.292;6.868;2023-04-03T17:11:10;2.87;;;1.80;;
33074;SDS011;19433;51.292;6.868;2023-04-03T17:13:36;1.83;;;1.43;;
33074;SDS011;19433;51.292;6.868;2023-04-03T17:16:02;5.07;;;1.83;;
33074;SDS011;19433;51.292;6.868;2023-04-03T17:18:30;1.63;;;1.53;;
33074;SDS011;19433;51.292;6.868;2023-04-03T17:20:57;4.00;;;2.17;;
33074;SDS011;19433;51.292;6.868;2023-04-03T17:23:25;2.60;;;1.80;;
33074;SDS011;19433;51.292;6.868;2023-04-03T17:25:53;2.17;;;1.50;;
33074;SDS011;19433;51.292;6.868;2023-04-03T17:28:19;2.80;;;1.40;;
33074;SDS011;19433;51.292;6.868;2023-04-03T17:30:46;1.60;;;1.40;;
33074;SDS011;19433;51.292;6.868;2023-04-03T17:33:12;2.37;;;1.73;;
33074;SDS011;19433;51.292;6.868;2023-04-03T17:35:37;3.73;;;2.00;;
33074;SDS011;19433;51.292;6.868;2023-04-03T17:38:03;2.40;;;2.00;;
33074;SDS011;19433;51.292;6.868;2023-04-03T17:40:28;1.83;;;1.67;;
33074;SDS011;19433;51.292;6.868;2023-04-03T17:42:54;2.50;;;1.60;;
33074;SDS011;19433;51.292;6.868;2023-04-03T17:45:19;2.37;;;1.70;;
33074;SDS011;19433;51.292;6.868;2023-04-03T17:47:44;3.10;;;2.13;;
33074;SDS011;19433;51.292;6.868;2023-04-03T17:50:10;2.47;;;2.00;;
33074;SDS011;19433;51.292;6.868;2023-04-03T17:52:36;1.77;;;1.40;;
33074;SDS011;19433;51.292;6.868;2023-04-03T17:55:02;1.70;;;1.60;;
33074;SDS011;19433;51.292;6.868;2023-04-03T17:57:28;1.70;;;1.60;;
33074;SDS011;19433;51.292;6.868;2023-04-03T17:59:55;2.10;;;1.40;;
33074;SDS011;19433;51.292;6.868;2023-04-03T18:02:21;1.63;;;1.47;;
33074;SDS011;19433;51.292;6.868;2023-04-03T18:04:46;3.67;;;2.30;;
33074;SDS011;19433;51.292;6.868;2023-04-03T18:07:11;2.23;;;1.67;;
33074;SDS011;19433;51.292;6.868;2023-04-03T18:09:36;4.47;;;2.60;;
33074;SDS011;19433;51.292;6.868;2023-04-03T18:12:04;3.93;;;2.73;;
33074;SDS011;19433;51.292;6.868;2023-04-03T18:14:31;6.60;;;4.57;;
33074;SDS011;19433;51.292;6.868;2023-04-03T18:16:59;7.13;;;4.43;;
33074;SDS011;19433;51.292;6.868;2023-04-03T18:19:27;9.70;;;3.00;;
33074;SDS011;19433;51.292;6.868;2023-04-03T18:21:54;4.53;;;2.57;;
33074;SDS011;19433;51.292;6.868;2023-04-03T18:24:21;4.30;;;2.83;;
33074;SDS011;19433;51.292;6.868;2023-04-03T19:21:06;3.97;;;1.73;;
33074;SDS011;19433;51.292;6.868;2023-04-03T19:23:31;2.80;;;1.97;;
33074;SDS011;19433;51.292;6.868;2023-04-03T19:49:25;4.50;;;2.53;;
33074;SDS011;19433;51.292;6.868;2023-04-03T19:51:50;5.30;;;2.10;;
